sensor_id;sensor_type;location;lat;lon;timestamp;P1;durP1;ratioP1;P2;durP2;ratioP2
8982;SDS011;20979;59.850;10.660;2023-11-21T00:00:35;5.60;;;4.73;;
8982;SDS011;20979;59.850;10.660;2023-11-21T00:03:02;5.70;;;4.80;;
8982;SDS011;20979;59.850;10.660;2023-11-21T00:05:30;5.53;;;4.67;;
8982;SDS011;20979;59.850;10.660;2023-11-21T00:07:57;5.07;;;4.23;;
8982;SDS011;20979;59.850;10.660;2023-11-21T00:10:25;5.80;;;4.50;;
8982;SDS011;20979;59.850;10.660;2023-11-21T00:12:55;5.93;;;4.43;;
8982;SDS011;20979;59.850;10.660;2023-11-21T00:15:22;5.07;;;4.13;;
8982;SDS011;20979;59.850;10.660;2023-11-21T00:17:49;5.97;;;4.90;;
8982;SDS011;20979;59.850;10.660;2023-11-21T00:20:17;5.77;;;4.07;;
8982;SDS011;20979;59.850;10.660;2023-11-21T00:22:45;5.27;;;4.23;;
8982;SDS011;20979;59.850;10.660;2023-11-21T00:25:12;5.20;;;4.20;;
8982;SDS011;20979;59.850;10.660;2023-11-21T00:27:42;4.93;;;4.00;;
8982;SDS011;20979;59.850;10.660;2023-11-21T00:30:12;5.47;;;4.27;;
8982;SDS011;20979;59.850;10.660;2023-11-21T00:32:39;5.37;;;4.30;;
8982;SDS011;20979;59.850;10.660;2023-11-21T00:35:07;4.83;;;4.00;;
8982;SDS011;20979;59.850;10.660;2023-11-21T00:37:34;4.80;;;4.00;;
8982;SDS011;20979;59.850;10.660;2023-11-21T00:40:02;5.77;;;3.93;;
8982;SDS011;20979;59.850;10.660;2023-11-21T00:42:31;5.07;;;3.83;;
8982;SDS011;20979;59.850;10.660;2023-11-21T00:44:59;4.27;;;3.87;;
8982;SDS011;20979;59.850;10.660;2023-11-21T00:47:28;3.97;;;3.57;;
8982;SDS011;20979;59.850;10.660;2023-11-21T00:49:55;4.33;;;3.93;;
8982;SDS011;20979;59.850;10.660;2023-11-21T00:52:23;4.70;;;3.73;;
8982;SDS011;20979;59.850;10.660;2023-11-21T00:54:50;5.33;;;3.50;;
8982;SDS011;20979;59.850;10.660;2023-11-21T00:57:17;6.10;;;4.30;;
8982;SDS011;20979;59.850;10.660;2023-11-21T00:59:45;3.73;;;3.33;;
8982;SDS011;20979;59.850;10.660;2023-11-21T01:02:12;4.53;;;3.67;;
8982;SDS011;20979;59.850;10.660;2023-11-21T01:04:41;4.80;;;3.80;;
8982;SDS011;20979;59.850;10.660;2023-11-21T01:07:08;4.37;;;3.77;;
8982;SDS011;20979;59.850;10.660;2023-11-21T01:09:36;5.10;;;3.63;;
8982;SDS011;20979;59.850;10.660;2023-11-21T01:12:03;3.50;;;3.20;;
8982;SDS011;20979;59.850;10.660;2023-11-21T01:14:31;4.00;;;3.20;;
8982;SDS011;20979;59.850;10.660;2023-11-21T01:16:59;3.93;;;3.43;;
8982;SDS011;20979;59.850;10.660;2023-11-21T01:19:26;4.63;;;4.10;;
8982;SDS011;20979;59.850;10.660;2023-11-21T01:21:55;4.77;;;3.83;;
8982;SDS011;20979;59.850;10.660;2023-11-21T01:24:23;4.40;;;3.93;;
8982;SDS011;20979;59.850;10.660;2023-11-21T01:26:50;5.27;;;3.83;;
8982;SDS011;20979;59.850;10.660;2023-11-21T01:29:17;5.23;;;3.57;;
8982;SDS011;20979;59.850;10.660;2023-11-21T01:31:45;5.03;;;3.73;;
8982;SDS011;20979;59.850;10.660;2023-11-21T01:34:12;4.70;;;3.90;;
8982;SDS011;20979;59.850;10.660;2023-11-21T01:36:40;5.97;;;3.60;;
8982;SDS011;20979;59.850;10.660;2023-11-21T01:39:09;4.10;;;3.70;;
8982;SDS011;20979;59.850;10.660;2023-11-21T01:41:40;5.70;;;4.33;;
8982;SDS011;20979;59.850;10.660;2023-11-21T01:44:09;5.37;;;4.07;;
8982;SDS011;20979;59.850;10.660;2023-11-21T01:46:36;5.23;;;4.20;;
8982;SDS011;20979;59.850;10.660;2023-11-21T01:49:04;4.40;;;4.00;;
8982;SDS011;20979;59.850;10.660;2023-11-21T01:51:31;5.33;;;4.00;;
8982;SDS011;20979;59.850;10.660;2023-11-21T01:53:59;3.90;;;3.40;;
8982;SDS011;20979;59.850;10.660;2023-11-21T01:56:28;4.60;;;3.60;;
8982;SDS011;20979;59.850;10.660;2023-11-21T01:58:56;4.50;;;3.40;;
8982;SDS011;20979;59.850;10.660;2023-11-21T02:01:23;5.30;;;3.90;;
8982;SDS011;20979;59.850;10.660;2023-11-21T02:03:51;4.33;;;3.10;;
8982;SDS011;20979;59.850;10.660;2023-11-21T02:06:18;5.27;;;3.80;;
8982;SDS011;20979;59.850;10.660;2023-11-21T02:08:47;4.30;;;3.23;;
8982;SDS011;20979;59.850;10.660;2023-11-21T02:11:15;3.77;;;3.40;;
8982;SDS011;20979;59.850;10.660;2023-11-21T02:13:45;4.40;;;3.83;;
8982;SDS011;20979;59.850;10.660;2023-11-21T02:16:15;5.10;;;3.97;;
8982;SDS011;20979;59.850;10.660;2023-11-21T02:18:42;4.17;;;3.43;;
8982;SDS011;20979;59.850;10.660;2023-11-21T02:21:09;5.00;;;3.60;;
8982;SDS011;20979;59.850;10.660;2023-11-21T02:23:38;4.83;;;3.33;;
8982;SDS011;20979;59.850;10.660;2023-11-21T02:26:09;4.57;;;3.23;;
8982;SDS011;20979;59.850;10.660;2023-11-21T02:28:36;3.60;;;3.30;;
8982;SDS011;20979;59.850;10.660;2023-11-21T02:31:04;4.13;;;3.63;;
8982;SDS011;20979;59.850;10.660;2023-11-21T02:33:32;4.17;;;3.77;;
8982;SDS011;20979;59.850;10.660;2023-11-21T02:36:00;5.37;;;3.40;;
8982;SDS011;20979;59.850;10.660;2023-11-21T02:38:27;4.20;;;3.47;;
8982;SDS011;20979;59.850;10.660;2023-11-21T02:40:57;4.63;;;3.60;;
8982;SDS011;20979;59.850;10.660;2023-11-21T02:43:25;3.93;;;3.40;;
8982;SDS011;20979;59.850;10.660;2023-11-21T02:45:52;3.93;;;3.50;;
8982;SDS011;20979;59.850;10.660;2023-11-21T02:48:19;3.77;;;3.40;;
8982;SDS011;20979;59.850;10.660;2023-11-21T02:50:49;4.73;;;4.00;;
8982;SDS011;20979;59.850;10.660;2023-11-21T02:53:18;4.20;;;3.53;;
8982;SDS011;20979;59.850;10.660;2023-11-21T02:55:45;3.90;;;3.07;;
8982;SDS011;20979;59.850;10.660;2023-11-21T02:58:14;4.27;;;3.57;;
8982;SDS011;20979;59.850;10.660;2023-11-21T03:00:41;3.33;;;3.03;;
8982;SDS011;20979;59.850;10.660;2023-11-21T03:03:09;3.60;;;3.27;;
8982;SDS011;20979;59.850;10.660;2023-11-21T03:05:36;3.50;;;3.20;;
8982;SDS011;20979;59.850;10.660;2023-11-21T03:08:03;3.90;;;3.37;;
8982;SDS011;20979;59.850;10.660;2023-11-21T03:10:31;4.50;;;3.40;;
8982;SDS011;20979;59.850;10.660;2023-11-21T03:12:59;5.27;;;4.33;;
8982;SDS011;20979;59.850;10.660;2023-11-21T03:15:27;5.10;;;4.20;;
8982;SDS011;20979;59.850;10.660;2023-11-21T03:17:55;4.60;;;3.70;;
8982;SDS011;20979;59.850;10.660;2023-11-21T03:20:22;5.37;;;4.37;;
8982;SDS011;20979;59.850;10.660;2023-11-21T03:22:50;5.33;;;4.40;;
8982;SDS011;20979;59.850;10.660;2023-11-21T03:25:18;4.97;;;4.17;;
8982;SDS011;20979;59.850;10.660;2023-11-21T03:27:45;5.50;;;4.27;;
8982;SDS011;20979;59.850;10.660;2023-11-21T03:30:12;4.70;;;4.00;;
8982;SDS011;20979;59.850;10.660;2023-11-21T03:32:41;5.07;;;4.20;;
8982;SDS011;20979;59.850;10.660;2023-11-21T03:35:08;4.70;;;4.20;;
8982;SDS011;20979;59.850;10.660;2023-11-21T03:37:36;5.93;;;4.60;;
8982;SDS011;20979;59.850;10.660;2023-11-21T03:40:07;6.37;;;4.67;;
8982;SDS011;20979;59.850;10.660;2023-11-21T03:42:34;5.33;;;4.47;;
8982;SDS011;20979;59.850;10.660;2023-11-21T03:45:01;5.20;;;4.70;;
8982;SDS011;20979;59.850;10.660;2023-11-21T03:47:30;4.70;;;4.20;;
8982;SDS011;20979;59.850;10.660;2023-11-21T03:49:58;5.90;;;4.80;;
8982;SDS011;20979;59.850;10.660;2023-11-21T03:52:26;4.43;;;3.90;;
8982;SDS011;20979;59.850;10.660;2023-11-21T03:54:53;5.80;;;4.37;;
8982;SDS011;20979;59.850;10.660;2023-11-21T03:57:21;4.47;;;4.07;;
8982;SDS011;20979;59.850;10.660;2023-11-21T03:59:48;5.13;;;4.13;;
8982;SDS011;20979;59.850;10.660;2023-11-21T04:02:16;4.87;;;4.37;;
8982;SDS011;20979;59.850;10.660;2023-11-21T04:04:43;5.03;;;4.17;;
8982;SDS011;20979;59.850;10.660;2023-11-21T04:07:12;4.37;;;3.97;;
8982;SDS011;20979;59.850;10.660;2023-11-21T04:09:40;4.53;;;3.87;;
8982;SDS011;20979;59.850;10.660;2023-11-21T04:12:07;5.30;;;4.43;;
8982;SDS011;20979;59.850;10.660;2023-11-21T04:14:35;5.40;;;4.30;;
8982;SDS011;20979;59.850;10.660;2023-11-21T04:17:02;5.77;;;4.37;;
8982;SDS011;20979;59.850;10.660;2023-11-21T04:19:30;4.97;;;4.17;;
8982;SDS011;20979;59.850;10.660;2023-11-21T04:21:57;5.13;;;4.40;;
8982;SDS011;20979;59.850;10.660;2023-11-21T04:24:26;5.53;;;4.17;;
8982;SDS011;20979;59.850;10.660;2023-11-21T04:26:53;6.17;;;4.20;;
8982;SDS011;20979;59.850;10.660;2023-11-21T04:29:20;5.83;;;3.83;;
8982;SDS011;20979;59.850;10.660;2023-11-21T04:31:48;5.00;;;3.97;;
8982;SDS011;20979;59.850;10.660;2023-11-21T04:34:15;4.93;;;3.90;;
8982;SDS011;20979;59.850;10.660;2023-11-21T04:36:42;6.23;;;4.43;;
8982;SDS011;20979;59.850;10.660;2023-11-21T04:39:10;4.83;;;4.10;;
8982;SDS011;20979;59.850;10.660;2023-11-21T04:41:39;5.43;;;4.53;;
8982;SDS011;20979;59.850;10.660;2023-11-21T04:44:06;3.97;;;3.60;;
8982;SDS011;20979;59.850;10.660;2023-11-21T04:46:34;4.70;;;4.13;;
8982;SDS011;20979;59.850;10.660;2023-11-21T04:49:01;5.33;;;4.37;;
8982;SDS011;20979;59.850;10.660;2023-11-21T04:51:29;4.97;;;4.40;;
8982;SDS011;20979;59.850;10.660;2023-11-21T04:53:57;5.87;;;4.50;;
8982;SDS011;20979;59.850;10.660;2023-11-21T04:56:24;4.57;;;4.00;;
8982;SDS011;20979;59.850;10.660;2023-11-21T04:58:54;5.10;;;4.10;;
8982;SDS011;20979;59.850;10.660;2023-11-21T05:01:21;5.40;;;4.90;;
8982;SDS011;20979;59.850;10.660;2023-11-21T05:03:48;5.40;;;4.60;;
8982;SDS011;20979;59.850;10.660;2023-11-21T05:06:16;5.27;;;4.77;;
8982;SDS011;20979;59.850;10.660;2023-11-21T05:08:43;5.10;;;4.27;;
8982;SDS011;20979;59.850;10.660;2023-11-21T05:11:10;5.73;;;4.43;;
8982;SDS011;20979;59.850;10.660;2023-11-21T05:13:38;6.40;;;4.73;;
8982;SDS011;20979;59.850;10.660;2023-11-21T05:16:07;5.70;;;4.60;;
8982;SDS011;20979;59.850;10.660;2023-11-21T05:18:34;5.43;;;4.57;;
8982;SDS011;20979;59.850;10.660;2023-11-21T05:21:01;10.47;;;7.17;;
8982;SDS011;20979;59.850;10.660;2023-11-21T05:23:30;6.00;;;5.27;;
8982;SDS011;20979;59.850;10.660;2023-11-21T05:25:57;5.50;;;4.70;;
8982;SDS011;20979;59.850;10.660;2023-11-21T05:28:24;7.23;;;5.30;;
8982;SDS011;20979;59.850;10.660;2023-11-21T05:30:52;6.37;;;5.10;;
8982;SDS011;20979;59.850;10.660;2023-11-21T05:33:21;5.10;;;4.60;;
8982;SDS011;20979;59.850;10.660;2023-11-21T05:35:48;5.83;;;5.00;;
8982;SDS011;20979;59.850;10.660;2023-11-21T05:38:15;6.23;;;4.50;;
8982;SDS011;20979;59.850;10.660;2023-11-21T05:40:43;6.10;;;4.77;;
8982;SDS011;20979;59.850;10.660;2023-11-21T05:43:10;6.23;;;4.73;;
8982;SDS011;20979;59.850;10.660;2023-11-21T05:45:37;6.67;;;4.57;;
8982;SDS011;20979;59.850;10.660;2023-11-21T05:48:06;5.17;;;4.47;;
8982;SDS011;20979;59.850;10.660;2023-11-21T05:50:35;7.40;;;5.00;;
8982;SDS011;20979;59.850;10.660;2023-11-21T05:53:03;4.67;;;4.23;;
8982;SDS011;20979;59.850;10.660;2023-11-21T05:55:30;5.83;;;4.63;;
8982;SDS011;20979;59.850;10.660;2023-11-21T05:57:58;5.67;;;4.50;;
8982;SDS011;20979;59.850;10.660;2023-11-21T06:00:25;6.07;;;4.70;;
8982;SDS011;20979;59.850;10.660;2023-11-21T06:02:53;5.30;;;4.80;;
8982;SDS011;20979;59.850;10.660;2023-11-21T06:05:21;6.10;;;5.50;;
8982;SDS011;20979;59.850;10.660;2023-11-21T06:07:50;5.60;;;5.10;;
8982;SDS011;20979;59.850;10.660;2023-11-21T06:10:19;5.03;;;4.53;;
8982;SDS011;20979;59.850;10.660;2023-11-21T06:12:46;6.20;;;5.10;;
8982;SDS011;20979;59.850;10.660;2023-11-21T06:15:14;5.47;;;4.90;;
8982;SDS011;20979;59.850;10.660;2023-11-21T06:17:44;6.30;;;5.53;;
8982;SDS011;20979;59.850;10.660;2023-11-21T06:20:14;6.80;;;5.67;;
8982;SDS011;20979;59.850;10.660;2023-11-21T06:22:44;11.90;;;8.53;;
8982;SDS011;20979;59.850;10.660;2023-11-21T06:25:13;8.80;;;6.50;;
8982;SDS011;20979;59.850;10.660;2023-11-21T06:27:41;7.70;;;5.93;;
8982;SDS011;20979;59.850;10.660;2023-11-21T06:30:09;7.60;;;6.03;;
8982;SDS011;20979;59.850;10.660;2023-11-21T06:32:38;6.90;;;5.93;;
8982;SDS011;20979;59.850;10.660;2023-11-21T06:35:06;8.07;;;6.07;;
8982;SDS011;20979;59.850;10.660;2023-11-21T06:37:35;6.90;;;5.63;;
8982;SDS011;20979;59.850;10.660;2023-11-21T06:40:02;6.97;;;5.90;;
8982;SDS011;20979;59.850;10.660;2023-11-21T06:42:32;9.43;;;6.60;;
8982;SDS011;20979;59.850;10.660;2023-11-21T06:44:59;7.07;;;5.77;;
8982;SDS011;20979;59.850;10.660;2023-11-21T06:47:29;8.17;;;6.10;;
8982;SDS011;20979;59.850;10.660;2023-11-21T06:49:56;8.17;;;6.20;;
8982;SDS011;20979;59.850;10.660;2023-11-21T06:52:24;8.03;;;5.93;;
8982;SDS011;20979;59.850;10.660;2023-11-21T06:54:51;7.97;;;6.13;;
8982;SDS011;20979;59.850;10.660;2023-11-21T06:57:18;8.50;;;6.60;;
8982;SDS011;20979;59.850;10.660;2023-11-21T06:59:47;8.43;;;6.47;;
8982;SDS011;20979;59.850;10.660;2023-11-21T07:02:15;10.60;;;6.70;;
8982;SDS011;20979;59.850;10.660;2023-11-21T07:04:44;7.67;;;6.37;;
8982;SDS011;20979;59.850;10.660;2023-11-21T07:07:11;7.43;;;6.10;;
8982;SDS011;20979;59.850;10.660;2023-11-21T07:09:39;7.77;;;6.33;;
8982;SDS011;20979;59.850;10.660;2023-11-21T07:12:07;10.87;;;6.73;;
8982;SDS011;20979;59.850;10.660;2023-11-21T07:14:36;8.17;;;6.57;;
8982;SDS011;20979;59.850;10.660;2023-11-21T07:17:06;8.43;;;6.80;;
8982;SDS011;20979;59.850;10.660;2023-11-21T07:19:33;6.70;;;6.00;;
8982;SDS011;20979;59.850;10.660;2023-11-21T07:22:01;8.40;;;6.60;;
8982;SDS011;20979;59.850;10.660;2023-11-21T07:24:28;8.77;;;6.40;;
8982;SDS011;20979;59.850;10.660;2023-11-21T07:26:57;8.93;;;6.40;;
8982;SDS011;20979;59.850;10.660;2023-11-21T07:29:24;10.63;;;6.90;;
8982;SDS011;20979;59.850;10.660;2023-11-21T07:31:52;7.83;;;6.30;;
8982;SDS011;20979;59.850;10.660;2023-11-21T07:34:20;9.47;;;6.87;;
8982;SDS011;20979;59.850;10.660;2023-11-21T07:36:48;8.10;;;6.10;;
8982;SDS011;20979;59.850;10.660;2023-11-21T07:39:15;8.00;;;6.40;;
8982;SDS011;20979;59.850;10.660;2023-11-21T07:41:42;8.63;;;6.70;;
8982;SDS011;20979;59.850;10.660;2023-11-21T07:44:14;8.90;;;6.20;;
8982;SDS011;20979;59.850;10.660;2023-11-21T07:46:42;8.47;;;6.47;;
8982;SDS011;20979;59.850;10.660;2023-11-21T07:49:09;8.60;;;7.13;;
8982;SDS011;20979;59.850;10.660;2023-11-21T07:51:38;10.13;;;7.17;;
8982;SDS011;20979;59.850;10.660;2023-11-21T07:54:05;10.53;;;7.37;;
8982;SDS011;20979;59.850;10.660;2023-11-21T07:56:32;10.07;;;7.13;;
8982;SDS011;20979;59.850;10.660;2023-11-21T07:59:00;10.73;;;6.80;;
8982;SDS011;20979;59.850;10.660;2023-11-21T08:01:27;7.77;;;6.60;;
8982;SDS011;20979;59.850;10.660;2023-11-21T08:03:54;10.47;;;7.07;;
8982;SDS011;20979;59.850;10.660;2023-11-21T08:06:26;10.87;;;6.60;;
8982;SDS011;20979;59.850;10.660;2023-11-21T08:08:55;10.17;;;7.27;;
8982;SDS011;20979;59.850;10.660;2023-11-21T08:11:22;9.40;;;6.83;;
8982;SDS011;20979;59.850;10.660;2023-11-21T08:13:51;8.80;;;6.60;;
8982;SDS011;20979;59.850;10.660;2023-11-21T08:16:20;10.43;;;6.87;;
8982;SDS011;20979;59.850;10.660;2023-11-21T08:18:49;10.50;;;7.60;;
8982;SDS011;20979;59.850;10.660;2023-11-21T08:21:16;8.47;;;6.77;;
8982;SDS011;20979;59.850;10.660;2023-11-21T08:23:44;8.43;;;6.90;;
8982;SDS011;20979;59.850;10.660;2023-11-21T08:26:13;9.07;;;7.07;;
8982;SDS011;20979;59.850;10.660;2023-11-21T08:28:43;8.20;;;6.50;;
8982;SDS011;20979;59.850;10.660;2023-11-21T08:31:16;9.17;;;6.77;;
8982;SDS011;20979;59.850;10.660;2023-11-21T08:33:44;8.20;;;6.90;;
8982;SDS011;20979;59.850;10.660;2023-11-21T08:36:11;7.77;;;6.13;;
8982;SDS011;20979;59.850;10.660;2023-11-21T08:38:38;8.70;;;6.30;;
8982;SDS011;20979;59.850;10.660;2023-11-21T08:41:06;9.27;;;6.40;;
8982;SDS011;20979;59.850;10.660;2023-11-21T08:43:36;8.43;;;5.70;;
8982;SDS011;20979;59.850;10.660;2023-11-21T08:46:04;8.03;;;6.33;;
8982;SDS011;20979;59.850;10.660;2023-11-21T08:48:34;7.77;;;5.77;;
8982;SDS011;20979;59.850;10.660;2023-11-21T08:51:01;7.30;;;5.67;;
8982;SDS011;20979;59.850;10.660;2023-11-21T08:53:29;8.07;;;6.03;;
8982;SDS011;20979;59.850;10.660;2023-11-21T08:55:57;7.73;;;6.27;;
8982;SDS011;20979;59.850;10.660;2023-11-21T08:58:25;8.90;;;6.87;;
8982;SDS011;20979;59.850;10.660;2023-11-21T09:00:54;10.23;;;7.53;;
8982;SDS011;20979;59.850;10.660;2023-11-21T09:03:21;10.40;;;8.17;;
8982;SDS011;20979;59.850;10.660;2023-11-21T09:05:49;10.30;;;7.93;;
8982;SDS011;20979;59.850;10.660;2023-11-21T09:08:16;10.57;;;8.33;;
8982;SDS011;20979;59.850;10.660;2023-11-21T09:10:43;8.73;;;7.50;;
8982;SDS011;20979;59.850;10.660;2023-11-21T09:13:12;10.03;;;7.67;;
8982;SDS011;20979;59.850;10.660;2023-11-21T09:15:41;12.07;;;8.23;;
8982;SDS011;20979;59.850;10.660;2023-11-21T09:18:13;9.93;;;7.90;;
8982;SDS011;20979;59.850;10.660;2023-11-21T09:20:40;10.60;;;7.47;;
8982;SDS011;20979;59.850;10.660;2023-11-21T09:23:09;9.80;;;7.50;;
8982;SDS011;20979;59.850;10.660;2023-11-21T09:25:36;11.30;;;7.70;;
8982;SDS011;20979;59.850;10.660;2023-11-21T09:28:04;9.23;;;7.27;;
8982;SDS011;20979;59.850;10.660;2023-11-21T09:30:33;9.60;;;7.40;;
8982;SDS011;20979;59.850;10.660;2023-11-21T09:33:01;8.93;;;7.50;;
8982;SDS011;20979;59.850;10.660;2023-11-21T09:35:32;9.60;;;7.33;;
8982;SDS011;20979;59.850;10.660;2023-11-21T09:37:59;9.23;;;7.03;;
8982;SDS011;20979;59.850;10.660;2023-11-21T09:40:30;9.67;;;8.13;;
8982;SDS011;20979;59.850;10.660;2023-11-21T09:42:58;10.63;;;8.20;;
8982;SDS011;20979;59.850;10.660;2023-11-21T09:45:26;12.47;;;9.63;;
8982;SDS011;20979;59.850;10.660;2023-11-21T09:47:53;11.83;;;7.83;;
8982;SDS011;20979;59.850;10.660;2023-11-21T09:50:22;10.23;;;7.93;;
8982;SDS011;20979;59.850;10.660;2023-11-21T09:52:54;7.90;;;7.00;;
8982;SDS011;20979;59.850;10.660;2023-11-21T09:55:22;8.80;;;6.80;;
8982;SDS011;20979;59.850;10.660;2023-11-21T09:57:53;9.50;;;6.77;;
8982;SDS011;20979;59.850;10.660;2023-11-21T10:00:22;9.37;;;6.67;;
8982;SDS011;20979;59.850;10.660;2023-11-21T10:02:49;10.00;;;6.37;;
8982;SDS011;20979;59.850;10.660;2023-11-21T10:05:18;8.30;;;6.83;;
8982;SDS011;20979;59.850;10.660;2023-11-21T10:07:48;9.63;;;6.57;;
8982;SDS011;20979;59.850;10.660;2023-11-21T10:10:18;8.03;;;6.60;;
8982;SDS011;20979;59.850;10.660;2023-11-21T10:12:48;7.60;;;6.37;;
8982;SDS011;20979;59.850;10.660;2023-11-21T10:15:18;9.03;;;7.10;;
8982;SDS011;20979;59.850;10.660;2023-11-21T10:17:48;8.87;;;6.70;;
8982;SDS011;20979;59.850;10.660;2023-11-21T10:20:18;10.07;;;6.93;;
8982;SDS011;20979;59.850;10.660;2023-11-21T10:22:46;10.97;;;7.10;;
8982;SDS011;20979;59.850;10.660;2023-11-21T10:25:13;13.17;;;7.63;;
8982;SDS011;20979;59.850;10.660;2023-11-21T10:27:43;7.60;;;6.30;;
8982;SDS011;20979;59.850;10.660;2023-11-21T10:30:15;10.37;;;6.60;;
8982;SDS011;20979;59.850;10.660;2023-11-21T10:32:43;8.67;;;6.63;;
8982;SDS011;20979;59.850;10.660;2023-11-21T10:35:10;9.07;;;6.60;;
8982;SDS011;20979;59.850;10.660;2023-11-21T10:37:37;8.57;;;7.10;;
8982;SDS011;20979;59.850;10.660;2023-11-21T10:40:06;8.33;;;6.30;;
8982;SDS011;20979;59.850;10.660;2023-11-21T10:42:34;7.33;;;6.07;;
8982;SDS011;20979;59.850;10.660;2023-11-21T10:45:05;9.00;;;6.83;;
8982;SDS011;20979;59.850;10.660;2023-11-21T10:47:37;8.83;;;6.80;;
8982;SDS011;20979;59.850;10.660;2023-11-21T10:50:05;8.93;;;7.23;;
8982;SDS011;20979;59.850;10.660;2023-11-21T10:52:36;9.17;;;7.03;;
8982;SDS011;20979;59.850;10.660;2023-11-21T10:55:12;9.00;;;7.20;;
8982;SDS011;20979;59.850;10.660;2023-11-21T10:57:42;12.27;;;8.07;;
8982;SDS011;20979;59.850;10.660;2023-11-21T11:00:13;10.37;;;7.53;;
8982;SDS011;20979;59.850;10.660;2023-11-21T11:02:41;9.43;;;7.23;;
8982;SDS011;20979;59.850;10.660;2023-11-21T11:05:08;9.60;;;7.20;;
8982;SDS011;20979;59.850;10.660;2023-11-21T11:07:37;9.73;;;6.97;;
8982;SDS011;20979;59.850;10.660;2023-11-21T11:10:06;8.20;;;6.93;;
8982;SDS011;20979;59.850;10.660;2023-11-21T11:12:39;8.40;;;6.47;;
8982;SDS011;20979;59.850;10.660;2023-11-21T11:15:07;8.13;;;6.73;;
8982;SDS011;20979;59.850;10.660;2023-11-21T11:17:36;7.90;;;6.53;;
8982;SDS011;20979;59.850;10.660;2023-11-21T11:20:05;9.37;;;6.97;;
8982;SDS011;20979;59.850;10.660;2023-11-21T11:22:37;8.23;;;6.87;;
8982;SDS011;20979;59.850;10.660;2023-11-21T11:27:50;8.77;;;6.87;;
8982;SDS011;20979;59.850;10.660;2023-11-21T11:30:26;8.80;;;6.50;;
8982;SDS011;20979;59.850;10.660;2023-11-21T11:32:58;8.33;;;6.33;;
8982;SDS011;20979;59.850;10.660;2023-11-21T11:35:31;8.47;;;6.50;;
8982;SDS011;20979;59.850;10.660;2023-11-21T11:38:01;8.40;;;5.70;;
8982;SDS011;20979;59.850;10.660;2023-11-21T11:40:38;7.17;;;6.20;;
8982;SDS011;20979;59.850;10.660;2023-11-21T11:43:07;7.37;;;6.00;;
8982;SDS011;20979;59.850;10.660;2023-11-21T11:45:35;7.73;;;5.73;;
8982;SDS011;20979;59.850;10.660;2023-11-21T11:48:07;7.57;;;5.63;;
8982;SDS011;20979;59.850;10.660;2023-11-21T11:50:35;7.17;;;5.50;;
8982;SDS011;20979;59.850;10.660;2023-11-21T11:53:12;7.37;;;5.77;;
8982;SDS011;20979;59.850;10.660;2023-11-21T11:55:39;7.77;;;5.30;;
8982;SDS011;20979;59.850;10.660;2023-11-21T11:58:07;6.03;;;5.03;;
8982;SDS011;20979;59.850;10.660;2023-11-21T12:00:35;5.27;;;4.77;;
8982;SDS011;20979;59.850;10.660;2023-11-21T12:03:06;5.83;;;5.00;;
8982;SDS011;20979;59.850;10.660;2023-11-21T12:05:35;5.90;;;5.10;;
8982;SDS011;20979;59.850;10.660;2023-11-21T12:08:05;5.83;;;5.17;;
8982;SDS011;20979;59.850;10.660;2023-11-21T12:10:34;6.33;;;5.53;;
8982;SDS011;20979;59.850;10.660;2023-11-21T12:13:02;6.37;;;5.30;;
8982;SDS011;20979;59.850;10.660;2023-11-21T12:15:33;5.80;;;5.20;;
8982;SDS011;20979;59.850;10.660;2023-11-21T12:18:01;6.80;;;5.17;;
8982;SDS011;20979;59.850;10.660;2023-11-21T12:20:29;7.57;;;5.27;;
8982;SDS011;20979;59.850;10.660;2023-11-21T12:22:59;5.50;;;4.90;;
8982;SDS011;20979;59.850;10.660;2023-11-21T12:25:27;8.63;;;5.43;;
8982;SDS011;20979;59.850;10.660;2023-11-21T12:27:57;6.77;;;5.40;;
8982;SDS011;20979;59.850;10.660;2023-11-21T12:30:25;8.87;;;4.80;;
8982;SDS011;20979;59.850;10.660;2023-11-21T12:32:53;7.37;;;5.27;;
8982;SDS011;20979;59.850;10.660;2023-11-21T12:35:22;5.73;;;4.60;;
8982;SDS011;20979;59.850;10.660;2023-11-21T12:37:50;5.40;;;4.60;;
8982;SDS011;20979;59.850;10.660;2023-11-21T12:40:20;6.13;;;5.33;;
8982;SDS011;20979;59.850;10.660;2023-11-21T12:42:48;6.57;;;4.80;;
8982;SDS011;20979;59.850;10.660;2023-11-21T12:45:18;6.80;;;4.73;;
8982;SDS011;20979;59.850;10.660;2023-11-21T12:47:46;6.67;;;4.93;;
8982;SDS011;20979;59.850;10.660;2023-11-21T12:50:14;6.20;;;4.83;;
8982;SDS011;20979;59.850;10.660;2023-11-21T12:52:42;7.03;;;4.80;;
8982;SDS011;20979;59.850;10.660;2023-11-21T12:55:13;5.80;;;5.03;;
8982;SDS011;20979;59.850;10.660;2023-11-21T12:57:43;6.73;;;5.70;;
8982;SDS011;20979;59.850;10.660;2023-11-21T13:00:11;6.50;;;5.37;;
8982;SDS011;20979;59.850;10.660;2023-11-21T13:02:49;5.27;;;4.33;;
8982;SDS011;20979;59.850;10.660;2023-11-21T13:05:23;6.57;;;4.73;;
8982;SDS011;20979;59.850;10.660;2023-11-21T13:07:50;5.77;;;4.80;;
8982;SDS011;20979;59.850;10.660;2023-11-21T13:10:19;6.83;;;4.57;;
8982;SDS011;20979;59.850;10.660;2023-11-21T13:12:52;5.73;;;4.90;;
8982;SDS011;20979;59.850;10.660;2023-11-21T13:15:23;7.30;;;4.50;;
8982;SDS011;20979;59.850;10.660;2023-11-21T13:17:50;8.87;;;4.63;;
8982;SDS011;20979;59.850;10.660;2023-11-21T13:20:18;6.23;;;4.97;;
8982;SDS011;20979;59.850;10.660;2023-11-21T13:22:47;5.77;;;4.67;;
8982;SDS011;20979;59.850;10.660;2023-11-21T13:25:15;5.30;;;4.60;;
8982;SDS011;20979;59.850;10.660;2023-11-21T13:27:44;4.93;;;4.30;;
8982;SDS011;20979;59.850;10.660;2023-11-21T13:30:14;4.80;;;3.90;;
8982;SDS011;20979;59.850;10.660;2023-11-21T13:32:42;6.57;;;4.70;;
8982;SDS011;20979;59.850;10.660;2023-11-21T13:35:10;5.13;;;4.40;;
8982;SDS011;20979;59.850;10.660;2023-11-21T13:37:47;4.57;;;4.07;;
8982;SDS011;20979;59.850;10.660;2023-11-21T13:40:16;8.30;;;4.50;;
8982;SDS011;20979;59.850;10.660;2023-11-21T13:42:48;6.57;;;4.43;;
8982;SDS011;20979;59.850;10.660;2023-11-21T13:45:20;5.97;;;4.77;;
8982;SDS011;20979;59.850;10.660;2023-11-21T13:47:48;7.87;;;4.37;;
8982;SDS011;20979;59.850;10.660;2023-11-21T13:50:17;5.87;;;4.53;;
8982;SDS011;20979;59.850;10.660;2023-11-21T13:52:48;5.60;;;4.40;;
8982;SDS011;20979;59.850;10.660;2023-11-21T13:55:18;6.67;;;4.50;;
8982;SDS011;20979;59.850;10.660;2023-11-21T13:57:48;5.47;;;4.43;;
8982;SDS011;20979;59.850;10.660;2023-11-21T14:00:17;6.77;;;4.90;;
8982;SDS011;20979;59.850;10.660;2023-11-21T14:03:33;7.70;;;4.57;;
8982;SDS011;20979;59.850;10.660;2023-11-21T14:06:09;5.90;;;4.77;;
8982;SDS011;20979;59.850;10.660;2023-11-21T14:08:45;6.77;;;4.53;;
8982;SDS011;20979;59.850;10.660;2023-11-21T14:11:13;6.27;;;4.77;;
8982;SDS011;20979;59.850;10.660;2023-11-21T14:13:43;6.97;;;4.87;;
8982;SDS011;20979;59.850;10.660;2023-11-21T14:16:13;7.47;;;5.10;;
8982;SDS011;20979;59.850;10.660;2023-11-21T14:18:43;7.00;;;5.30;;
8982;SDS011;20979;59.850;10.660;2023-11-21T14:21:20;6.57;;;5.23;;
8982;SDS011;20979;59.850;10.660;2023-11-21T14:23:48;8.00;;;5.43;;
8982;SDS011;20979;59.850;10.660;2023-11-21T14:26:15;7.47;;;4.57;;
8982;SDS011;20979;59.850;10.660;2023-11-21T14:28:43;6.73;;;5.20;;
8982;SDS011;20979;59.850;10.660;2023-11-21T14:31:10;7.90;;;5.80;;
8982;SDS011;20979;59.850;10.660;2023-11-21T14:33:40;8.10;;;5.90;;
8982;SDS011;20979;59.850;10.660;2023-11-21T14:36:09;10.40;;;6.20;;
8982;SDS011;20979;59.850;10.660;2023-11-21T14:38:36;8.00;;;5.43;;
8982;SDS011;20979;59.850;10.660;2023-11-21T14:41:05;8.30;;;5.80;;
8982;SDS011;20979;59.850;10.660;2023-11-21T14:43:33;7.33;;;5.27;;
8982;SDS011;20979;59.850;10.660;2023-11-21T14:48:28;7.97;;;5.27;;
8982;SDS011;20979;59.850;10.660;2023-11-21T14:51:08;6.63;;;5.10;;
8982;SDS011;20979;59.850;10.660;2023-11-21T14:53:59;6.30;;;4.97;;
8982;SDS011;20979;59.850;10.660;2023-11-21T14:56:31;6.67;;;5.07;;
8982;SDS011;20979;59.850;10.660;2023-11-21T14:58:59;8.10;;;5.37;;